Terminal Aerodrome Forecast
Issued by NWS

Home | Current Version | Previous Version | Text Only | Print | Product List | Glossary On
Versions: 1 2 3 4 5 6 7 8 9 10 11 12
000
FTUS42 TJSJ 251740
TAFJBQ
TAF
TJBQ 251740Z 2518/2618 36010KT P6SM VCSH SCT025
     FM252300 10008KT P6SM SCT025
     FM261400 08013KT P6SM SCT025
      AMD NOT SKED 2602/2611=

USA.gov is the U.S. government's official web portal to all federal, state and local government web resources and services.